Terminal Aerodrome Forecast
Issued by NWS Sioux Falls, SD

Home | Current Version | Previous Version | Text Only | Print | Product List | Glossary On
Versions: 1 2 3 4 5 6 7 8 9 10 11 12 13 14 15 16 17 18 19 20 21 22 23 24 25 26 27 28 29 30 31 32 33 34 35 36 37 38 39 40 41 42 43
000
FTUS43 KFSD 271700
TAFSUX
TAF
KSUX 271720Z 2718/2818 11007KT P6SM -SHRA BKN010
     FM272000 14007KT P6SM BKN015
     FM280300 14007KT 5SM -TSRA BKN015CB
      TEMPO 2805/2809 3SM TSRA BKN008CB
     FM281200 16007KT P6SM BKN015=

USA.gov is the U.S. government's official web portal to all federal, state and local government web resources and services.